Time;durP1;ratioP1;P1;durP2;ratioP2;P2;SDS_P1;SDS_P2;PMS_P1;PMS_P2;Temp;Humidity;BMP_temperature;BMP_pressure;BME280_temperature;BME280_humidity;BME280_pressure;Samples;Min_cycle;Max_cycle;Signal;HPM_P1;HPM_P2
2021/06/22 00:00:08;;;;;;;5.53;4.00;;;;;;;;;;4999329;28;20032;-59
2021/06/22 00:02:33;;;;;;;5.28;4.20;;;;;;;;;;4999113;28;20055;-59
2021/06/22 00:04:59;;;;;;;5.28;3.70;;;;;;;;;;5001629;28;20022;-59
2021/06/22 00:07:24;;;;;;;4.43;4.00;;;;;;;;;;5001122;28;20088;-60
2021/06/22 00:09:49;;;;;;;4.32;3.47;;;;;;;;;;4999353;28;20030;-59
2021/06/22 00:12:15;;;;;;;8.10;4.63;;;;;;;;;;4997475;28;20120;-59
2021/06/22 00:14:40;;;;;;;4.85;4.35;;;;;;;;;;5000183;28;20111;-60
2021/06/22 00:17:06;;;;;;;4.13;3.72;;;;;;;;;;5006693;28;20028;-59
2021/06/22 00:19:31;;;;;;;4.82;4.18;;;;;;;;;;5004894;28;20088;-59
2021/06/22 00:21:57;;;;;;;7.32;3.88;;;;;;;;;;5001807;28;20545;-60
2021/06/22 00:24:22;;;;;;;5.57;4.30;;;;;;;;;;5001005;28;20562;-60
2021/06/22 00:26:47;;;;;;;5.15;4.15;;;;;;;;;;5005936;28;20507;-60
2021/06/22 00:29:13;;;;;;;4.45;3.90;;;;;;;;;;5001569;28;20026;-59
2021/06/22 00:31:38;;;;;;;5.78;4.07;;;;;;;;;;5003534;28;20053;-59
2021/06/22 00:34:04;;;;;;;7.13;4.32;;;;;;;;;;4997746;28;20021;-59
2021/06/22 00:36:29;;;;;;;4.72;3.67;;;;;;;;;;4999103;28;20042;-59
2021/06/22 00:38:55;;;;;;;3.90;3.53;;;;;;;;;;4998830;28;20530;-59
2021/06/22 00:41:21;;;;;;;4.45;4.05;;;;;;;;;;5003996;28;20041;-58
2021/06/22 00:43:46;;;;;;;5.53;4.05;;;;;;;;;;5004731;28;20029;-59
2021/06/22 00:46:11;;;;;;;5.03;4.05;;;;;;;;;;4999285;28;20046;-59
2021/06/22 00:48:37;;;;;;;5.30;4.38;;;;;;;;;;4999601;28;20024;-59
2021/06/22 00:51:03;;;;;;;5.80;4.10;;;;;;;;;;5001835;28;20056;-59
2021/06/22 00:53:28;;;;;;;7.45;3.88;;;;;;;;;;5002024;28;20567;-59
2021/06/22 00:55:54;;;;;;;5.47;4.65;;;;;;;;;;5005115;28;20034;-59
2021/06/22 00:58:21;;;;;;;4.93;4.10;;;;;;;;;;5003247;28;20389;-59
2021/06/22 01:00:46;;;;;;;5.35;4.05;;;;;;;;;;5005037;28;20458;-58
2021/06/22 01:03:11;;;;;;;6.68;4.10;;;;;;;;;;5003553;28;20037;-59
2021/06/22 01:05:37;;;;;;;5.68;4.00;;;;;;;;;;4999399;28;20025;-59
2021/06/22 01:08:03;;;;;;;4.28;3.90;;;;;;;;;;5003747;28;20535;-59
2021/06/22 01:10:29;;;;;;;4.75;3.70;;;;;;;;;;5002939;28;20404;-59
2021/06/22 01:12:54;;;;;;;4.60;3.95;;;;;;;;;;4998333;28;20124;-59
2021/06/22 01:15:22;;;;;;;6.75;4.05;;;;;;;;;;4996514;28;20034;-59
2021/06/22 01:17:53;;;;;;;4.60;4.20;;;;;;;;;;5003698;28;20116;-59
2021/06/22 01:20:18;;;;;;;5.90;4.55;;;;;;;;;;4995719;28;20030;-59
2021/06/22 01:22:46;;;;;;;7.88;4.10;;;;;;;;;;5005644;28;20403;-59
2021/06/22 01:25:13;;;;;;;4.13;3.72;;;;;;;;;;5002547;28;20118;-59
2021/06/22 01:27:38;;;;;;;5.60;4.05;;;;;;;;;;4999178;28;20033;-59
2021/06/22 01:30:06;;;;;;;4.65;4.20;;;;;;;;;;5002224;28;20087;-60
2021/06/22 01:32:31;;;;;;;4.68;4.00;;;;;;;;;;4997678;28;20034;-59
2021/06/22 01:34:57;;;;;;;3.65;3.35;;;;;;;;;;5006048;28;20103;-59
2021/06/22 01:37:23;;;;;;;3.97;3.05;;;;;;;;;;5001312;28;20366;-59
2021/06/22 01:39:48;;;;;;;3.95;3.65;;;;;;;;;;5000193;28;20036;-59
2021/06/22 01:42:13;;;;;;;4.50;3.55;;;;;;;;;;5001075;28;20435;-59
2021/06/22 01:44:40;;;;;;;6.03;3.80;;;;;;;;;;5000657;28;20121;-58
2021/06/22 01:47:06;;;;;;;4.35;3.95;;;;;;;;;;4996006;28;20081;-59
2021/06/22 01:49:33;;;;;;;3.58;3.28;;;;;;;;;;5002627;28;20472;-60
2021/06/22 01:51:58;;;;;;;5.25;3.90;;;;;;;;;;5009952;28;20468;-59
2021/06/22 01:54:24;;;;;;;4.75;3.63;;;;;;;;;;5000164;28;20082;-60
2021/06/22 01:56:52;;;;;;;4.88;3.47;;;;;;;;;;4997329;28;20033;-60
2021/06/22 01:59:18;;;;;;;4.10;3.67;;;;;;;;;;4998396;28;20061;-60
2021/06/22 02:01:44;;;;;;;5.90;4.00;;;;;;;;;;5004405;28;20069;-60
2021/06/22 02:04:10;;;;;;;5.00;3.97;;;;;;;;;;5010201;28;20030;-60
2021/06/22 02:06:36;;;;;;;4.80;3.60;;;;;;;;;;5006902;28;20516;-60
2021/06/22 02:09:02;;;;;;;4.43;3.70;;;;;;;;;;5000677;28;20109;-60
2021/06/22 02:11:28;;;;;;;4.75;3.35;;;;;;;;;;5006824;28;20034;-60
2021/06/22 02:13:53;;;;;;;4.35;3.42;;;;;;;;;;5003392;28;20026;-60
2021/06/22 02:16:19;;;;;;;4.90;3.30;;;;;;;;;;4999659;28;20515;-60
2021/06/22 02:18:45;;;;;;;4.43;3.50;;;;;;;;;;5010038;28;20076;-60
2021/06/22 02:21:11;;;;;;;4.93;3.60;;;;;;;;;;5005549;28;20519;-60
2021/06/22 02:23:37;;;;;;;6.10;3.38;;;;;;;;;;5002165;28;20026;-60
2021/06/22 02:26:04;;;;;;;5.05;3.13;;;;;;;;;;5008702;28;20029;-60
2021/06/22 02:28:30;;;;;;;3.47;3.17;;;;;;;;;;5005898;28;20017;-60
2021/06/22 02:30:58;;;;;;;6.30;3.45;;;;;;;;;;5007972;28;20406;-60
2021/06/22 02:33:24;;;;;;;3.20;2.90;;;;;;;;;;5001018;28;20306;-60
2021/06/22 02:35:50;;;;;;;6.00;3.65;;;;;;;;;;5002023;28;20114;-60
2021/06/22 02:38:16;;;;;;;8.93;3.33;;;;;;;;;;5000918;28;20408;-59
2021/06/22 02:40:42;;;;;;;5.05;3.30;;;;;;;;;;5008058;28;20057;-60
2021/06/22 02:43:08;;;;;;;5.22;3.15;;;;;;;;;;5006670;28;20026;-60
2021/06/22 02:45:34;;;;;;;4.32;3.30;;;;;;;;;;5001437;28;20113;-60
2021/06/22 02:48:01;;;;;;;4.70;3.20;;;;;;;;;;5006404;28;20397;-60
2021/06/22 02:50:26;;;;;;;5.00;3.13;;;;;;;;;;5002147;28;20053;-60
2021/06/22 02:52:52;;;;;;;7.65;3.72;;;;;;;;;;5001127;28;20058;-60
2021/06/22 02:55:18;;;;;;;3.75;3.30;;;;;;;;;;5007086;28;20032;-60
2021/06/22 02:57:49;;;;;;;5.40;3.20;;;;;;;;;;5006510;28;20428;-60
2021/06/22 03:00:17;;;;;;;4.50;3.22;;;;;;;;;;5001749;28;20100;-60
2021/06/22 03:02:42;;;;;;;5.75;3.58;;;;;;;;;;4996822;28;20052;-60
2021/06/22 03:05:09;;;;;;;3.45;3.15;;;;;;;;;;5002144;28;20037;-60
2021/06/22 03:07:35;;;;;;;3.38;3.08;;;;;;;;;;5003659;28;20120;-60
2021/06/22 03:10:00;;;;;;;3.83;2.95;;;;;;;;;;5002551;28;20121;-60
2021/06/22 03:12:26;;;;;;;4.40;3.42;;;;;;;;;;5002696;28;20034;-60
2021/06/22 03:14:51;;;;;;;3.47;3.17;;;;;;;;;;5001768;28;20057;-60
2021/06/22 03:17:17;;;;;;;4.20;3.15;;;;;;;;;;4999158;28;20022;-59
2021/06/22 03:19:42;;;;;;;7.38;3.50;;;;;;;;;;4999862;28;20030;-59
2021/06/22 03:22:07;;;;;;;3.75;2.88;;;;;;;;;;5004172;28;20045;-60
2021/06/22 03:24:33;;;;;;;5.20;3.05;;;;;;;;;;5007784;28;20030;-60
2021/06/22 03:26:58;;;;;;;4.93;3.22;;;;;;;;;;4999478;28;20028;-60
2021/06/22 03:29:24;;;;;;;5.32;3.42;;;;;;;;;;5002284;28;20022;-59
2021/06/22 03:31:50;;;;;;;5.10;3.08;;;;;;;;;;5005574;28;20017;-60
2021/06/22 03:34:16;;;;;;;5.50;3.00;;;;;;;;;;5006304;28;20041;-59
2021/06/22 03:36:42;;;;;;;3.70;2.97;;;;;;;;;;5001629;28;20034;-59
2021/06/22 03:39:08;;;;;;;5.50;2.90;;;;;;;;;;5003116;28;20029;-57
2021/06/22 03:41:33;;;;;;;5.63;2.90;;;;;;;;;;5000555;28;20389;-58
2021/06/22 03:43:59;;;;;;;9.90;3.25;;;;;;;;;;5000957;28;20038;-57
2021/06/22 03:46:25;;;;;;;3.97;2.90;;;;;;;;;;5001709;28;20026;-57
2021/06/22 03:48:50;;;;;;;6.32;3.22;;;;;;;;;;5006089;28;20057;-57
2021/06/22 03:51:16;;;;;;;4.75;3.60;;;;;;;;;;4995836;28;20121;-57
2021/06/22 03:53:42;;;;;;;6.40;3.28;;;;;;;;;;5005346;28;20029;-57
2021/06/22 03:56:08;;;;;;;3.50;3.17;;;;;;;;;;4999415;28;20578;-58
2021/06/22 03:58:38;;;;;;;4.15;3.20;;;;;;;;;;5005418;28;20427;-57
2021/06/22 04:01:03;;;;;;;4.75;3.53;;;;;;;;;;4999846;28;20066;-58
2021/06/22 04:03:29;;;;;;;6.00;4.32;;;;;;;;;;5001878;28;20023;-58
2021/06/22 04:05:55;;;;;;;5.70;3.78;;;;;;;;;;5007225;28;20052;-57
2021/06/22 04:08:20;;;;;;;6.22;3.63;;;;;;;;;;5006781;28;20369;-58
2021/06/22 04:10:47;;;;;;;5.30;3.30;;;;;;;;;;5001107;28;20079;-57
2021/06/22 04:13:12;;;;;;;3.67;3.30;;;;;;;;;;5004421;28;20419;-57
2021/06/22 04:15:38;;;;;;;6.38;4.15;;;;;;;;;;5003418;28;20030;-58
2021/06/22 04:18:05;;;;;;;5.32;4.07;;;;;;;;;;4999206;28;20022;-57
2021/06/22 04:20:31;;;;;;;6.05;3.60;;;;;;;;;;4997477;28;20034;-57
2021/06/22 04:22:57;;;;;;;3.53;3.10;;;;;;;;;;5000086;28;20129;-57
2021/06/22 04:25:23;;;;;;;4.35;3.70;;;;;;;;;;5000462;28;20140;-57
2021/06/22 04:27:48;;;;;;;3.30;3.00;;;;;;;;;;5001042;28;20068;-57
2021/06/22 04:30:14;;;;;;;3.60;3.30;;;;;;;;;;5002780;28;20705;-60
2021/06/22 04:32:40;;;;;;;3.92;3.50;;;;;;;;;;5002147;28;20088;-61
2021/06/22 04:35:06;;;;;;;8.02;5.32;;;;;;;;;;5001143;28;20033;-60
2021/06/22 04:37:33;;;;;;;4.75;4.20;;;;;;;;;;5001147;28;20083;-61
2021/06/22 04:39:58;;;;;;;5.00;3.70;;;;;;;;;;4997756;28;20045;-59
2021/06/22 04:42:24;;;;;;;5.72;4.00;;;;;;;;;;5000385;28;20045;-58
2021/06/22 04:44:49;;;;;;;3.83;3.45;;;;;;;;;;4997493;28;20034;-58
2021/06/22 04:47:15;;;;;;;5.30;3.72;;;;;;;;;;5001500;28;20025;-57
2021/06/22 04:49:40;;;;;;;4.00;3.60;;;;;;;;;;5001582;28;20134;-59
2021/06/22 04:52:06;;;;;;;5.18;3.67;;;;;;;;;;4997409;28;20113;-59
2021/06/22 04:54:31;;;;;;;5.00;3.80;;;;;;;;;;4997568;28;20025;-59
2021/06/22 04:56:57;;;;;;;4.70;3.67;;;;;;;;;;4995914;28;20096;-60
2021/06/22 04:59:23;;;;;;;4.05;3.33;;;;;;;;;;5002259;28;20026;-61
2021/06/22 05:01:48;;;;;;;3.50;3.08;;;;;;;;;;5000418;28;20025;-60
2021/06/22 05:04:14;;;;;;;3.97;3.40;;;;;;;;;;5004229;28;20099;-61
2021/06/22 05:06:39;;;;;;;3.60;2.95;;;;;;;;;;4997939;28;20053;-61
2021/06/22 05:09:05;;;;;;;4.93;2.92;;;;;;;;;;4996499;28;20033;-61
2021/06/22 05:11:30;;;;;;;3.45;3.10;;;;;;;;;;4996376;28;20032;-61
2021/06/22 05:13:56;;;;;;;4.10;3.63;;;;;;;;;;4999027;28;20044;-61
2021/06/22 05:16:22;;;;;;;4.07;3.75;;;;;;;;;;5000277;28;20108;-61
2021/06/22 05:18:48;;;;;;;5.43;3.53;;;;;;;;;;5001502;28;20060;-61
2021/06/22 05:21:14;;;;;;;4.32;3.65;;;;;;;;;;5003967;28;20065;-61
2021/06/22 05:23:40;;;;;;;6.53;3.90;;;;;;;;;;5011445;28;20504;-61
2021/06/22 05:26:05;;;;;;;4.45;3.92;;;;;;;;;;5000437;28;20032;-61
2021/06/22 05:28:34;;;;;;;4.78;3.55;;;;;;;;;;5001965;28;20410;-61
2021/06/22 05:30:59;;;;;;;5.65;4.50;;;;;;;;;;4999097;28;20408;-61
2021/06/22 05:33:25;;;;;;;4.78;3.70;;;;;;;;;;5002139;28;20029;-61
2021/06/22 05:35:50;;;;;;;4.75;3.28;;;;;;;;;;5002193;28;20045;-61
2021/06/22 05:38:16;;;;;;;5.72;3.47;;;;;;;;;;4998337;28;20117;-62
2021/06/22 05:40:42;;;;;;;4.43;3.22;;;;;;;;;;4999015;28;20032;-61
2021/06/22 05:43:08;;;;;;;4.20;3.10;;;;;;;;;;5003113;28;20048;-61
2021/06/22 05:45:33;;;;;;;3.65;3.35;;;;;;;;;;4998947;28;20017;-59
2021/06/22 05:47:59;;;;;;;4.57;3.38;;;;;;;;;;4999578;28;20034;-61
2021/06/22 05:50:24;;;;;;;5.03;4.20;;;;;;;;;;5000095;28;20031;-60
2021/06/22 05:52:51;;;;;;;4.68;3.95;;;;;;;;;;5004254;28;20522;-60
2021/06/22 05:55:16;;;;;;;4.60;4.18;;;;;;;;;;5004001;28;20040;-60
2021/06/22 05:57:55;;;;;;;6.78;4.63;;;;;;;;;;4994414;28;20038;-60
2021/06/22 06:00:23;;;;;;;4.43;3.95;;;;;;;;;;4996045;28;20035;-59
2021/06/22 06:02:50;;;;;;;5.20;4.50;;;;;;;;;;5014448;28;20044;-60
2021/06/22 06:05:16;;;;;;;6.35;4.10;;;;;;;;;;5000668;28;20084;-60
2021/06/22 06:07:42;;;;;;;7.07;4.15;;;;;;;;;;4996902;28;20068;-60
2021/06/22 06:10:09;;;;;;;5.70;4.22;;;;;;;;;;4996322;28;20452;-60
2021/06/22 06:12:35;;;;;;;5.15;4.10;;;;;;;;;;4994696;28;20337;-60
2021/06/22 06:15:00;;;;;;;6.32;4.38;;;;;;;;;;4999761;28;20078;-60
2021/06/22 06:17:25;;;;;;;4.38;3.92;;;;;;;;;;4998900;28;20036;-60
2021/06/22 06:19:51;;;;;;;6.07;4.10;;;;;;;;;;5001956;28;20477;-60
2021/06/22 06:22:18;;;;;;;8.05;4.45;;;;;;;;;;4998068;28;20057;-60
2021/06/22 06:24:45;;;;;;;4.90;4.03;;;;;;;;;;5001483;28;20046;-60
2021/06/22 06:27:14;;;;;;;4.40;3.80;;;;;;;;;;4996215;28;20033;-59
2021/06/22 06:29:53;;;;;;;4.80;3.67;;;;;;;;;;4999402;28;20483;-58
2021/06/22 06:32:18;;;;;;;4.40;3.95;;;;;;;;;;4994934;28;20030;-58
2021/06/22 06:34:44;;;;;;;6.72;3.97;;;;;;;;;;5001968;28;20301;-58
2021/06/22 06:37:09;;;;;;;5.22;4.03;;;;;;;;;;4996615;28;20025;-58
2021/06/22 06:39:34;;;;;;;5.43;4.00;;;;;;;;;;4999099;28;20026;-58
2021/06/22 06:42:00;;;;;;;7.00;4.32;;;;;;;;;;4999656;28;20152;-58
2021/06/22 06:44:25;;;;;;;4.03;3.30;;;;;;;;;;5005479;28;20488;-58
2021/06/22 06:46:50;;;;;;;3.75;3.38;;;;;;;;;;5003198;28;20034;-59
2021/06/22 06:49:16;;;;;;;8.40;3.67;;;;;;;;;;5004994;28;20435;-59
2021/06/22 06:51:41;;;;;;;4.30;3.42;;;;;;;;;;5003073;28;20583;-59
2021/06/22 06:54:07;;;;;;;4.63;3.72;;;;;;;;;;5005338;28;20037;-58
2021/06/22 06:56:32;;;;;;;4.63;3.70;;;;;;;;;;5001166;28;20085;-58
2021/06/22 06:58:58;;;;;;;4.45;3.90;;;;;;;;;;5002126;28;20038;-58
2021/06/22 07:01:23;;;;;;;4.18;3.70;;;;;;;;;;5018845;28;20069;-58
2021/06/22 07:03:49;;;;;;;5.95;3.80;;;;;;;;;;5004112;28;20033;-58
2021/06/22 07:06:15;;;;;;;8.07;3.80;;;;;;;;;;5005422;28;20041;-58
2021/06/22 07:08:41;;;;;;;4.60;3.88;;;;;;;;;;4996987;28;20030;-59
2021/06/22 07:11:07;;;;;;;5.07;3.80;;;;;;;;;;5003923;28;20033;-58
2021/06/22 07:13:33;;;;;;;5.18;3.85;;;;;;;;;;4999430;28;20022;-59
2021/06/22 07:15:58;;;;;;;4.25;3.55;;;;;;;;;;5001857;28;20515;-58
2021/06/22 07:18:24;;;;;;;8.65;3.88;;;;;;;;;;4997793;28;20038;-58
2021/06/22 07:20:49;;;;;;;6.47;4.13;;;;;;;;;;4999995;28;20042;-58
2021/06/22 07:23:15;;;;;;;4.88;3.90;;;;;;;;;;5005186;28;20061;-59
2021/06/22 07:25:40;;;;;;;5.70;4.25;;;;;;;;;;4995043;28;20034;-58
2021/06/22 07:28:06;;;;;;;4.65;4.10;;;;;;;;;;5004009;28;20030;-59
2021/06/22 07:30:32;;;;;;;6.30;5.03;;;;;;;;;;4999877;28;20030;-58
2021/06/22 07:32:58;;;;;;;5.28;4.57;;;;;;;;;;4996638;28;20033;-59
2021/06/22 07:35:29;;;;;;;12.55;5.18;;;;;;;;;;5003118;28;20408;-58
2021/06/22 07:37:55;;;;;;;7.35;4.43;;;;;;;;;;5001524;28;20468;-58
2021/06/22 07:40:20;;;;;;;5.47;4.50;;;;;;;;;;5000793;28;20031;-58
2021/06/22 07:42:47;;;;;;;5.78;4.88;;;;;;;;;;5001110;28;20065;-58
2021/06/22 07:45:13;;;;;;;7.45;5.07;;;;;;;;;;5003732;28;20040;-59
2021/06/22 07:47:38;;;;;;;10.93;5.40;;;;;;;;;;5006110;28;20461;-59
2021/06/22 07:50:05;;;;;;;10.32;5.45;;;;;;;;;;4996381;28;20072;-59
2021/06/22 07:52:31;;;;;;;17.52;5.47;;;;;;;;;;5005218;28;20055;-58
2021/06/22 07:54:56;;;;;;;6.60;5.13;;;;;;;;;;5000708;28;20038;-58
2021/06/22 07:57:22;;;;;;;9.02;5.47;;;;;;;;;;5005367;28;20546;-59
2021/06/22 07:59:47;;;;;;;12.80;6.00;;;;;;;;;;5000938;28;20038;-59
2021/06/22 08:02:13;;;;;;;7.18;4.88;;;;;;;;;;5005291;28;20040;-58
2021/06/22 08:04:38;;;;;;;5.30;4.80;;;;;;;;;;4997468;28;20029;-58
2021/06/22 08:07:03;;;;;;;6.68;5.07;;;;;;;;;;4998381;28;20034;-58
2021/06/22 08:09:29;;;;;;;6.47;5.50;;;;;;;;;;5002576;28;20468;-58
2021/06/22 08:11:54;;;;;;;6.40;5.55;;;;;;;;;;4997647;28;20083;-58
2021/06/22 08:14:20;;;;;;;8.38;5.30;;;;;;;;;;5007270;28;20029;-58
2021/06/22 08:16:45;;;;;;;6.78;4.57;;;;;;;;;;4997584;28;20078;-58
2021/06/22 08:19:11;;;;;;;5.20;4.80;;;;;;;;;;5003044;28;20199;-58
2021/06/22 08:21:38;;;;;;;5.78;5.18;;;;;;;;;;5000140;28;20127;-58
2021/06/22 08:24:04;;;;;;;5.45;4.95;;;;;;;;;;4998745;28;20034;-58
2021/06/22 08:26:29;;;;;;;5.70;4.50;;;;;;;;;;5004788;28;20052;-58
2021/06/22 08:28:55;;;;;;;5.63;4.97;;;;;;;;;;4997470;28;20763;-58
2021/06/22 08:31:20;;;;;;;5.63;4.82;;;;;;;;;;4998443;28;20044;-58
2021/06/22 08:33:46;;;;;;;5.80;5.15;;;;;;;;;;5000602;28;20061;-58
2021/06/22 08:36:12;;;;;;;7.22;5.40;;;;;;;;;;5001733;28;20458;-59
2021/06/22 08:38:38;;;;;;;5.47;4.97;;;;;;;;;;4999824;28;20028;-59
2021/06/22 08:41:08;;;;;;;8.43;5.10;;;;;;;;;;5020230;28;20030;-59
2021/06/22 08:43:34;;;;;;;7.13;5.80;;;;;;;;;;4998266;28;20087;-59
2021/06/22 08:46:04;;;;;;;7.38;4.82;;;;;;;;;;5003213;28;20029;-59
2021/06/22 08:48:31;;;;;;;5.88;4.72;;;;;;;;;;4998183;28;20030;-59
2021/06/22 08:50:56;;;;;;;6.75;5.95;;;;;;;;;;5002038;28;20541;-59
2021/06/22 08:53:22;;;;;;;6.13;5.63;;;;;;;;;;4999904;28;20141;-59
2021/06/22 08:55:47;;;;;;;7.00;6.20;;;;;;;;;;5001937;28;20033;-59
2021/06/22 08:58:16;;;;;;;5.72;5.22;;;;;;;;;;5012677;28;20424;-59
2021/06/22 09:00:44;;;;;;;6.55;5.72;;;;;;;;;;4997443;28;20029;-59
2021/06/22 09:03:13;;;;;;;6.88;4.95;;;;;;;;;;5000819;28;20030;-59
2021/06/22 09:05:40;;;;;;;6.45;5.85;;;;;;;;;;5002942;28;20037;-59
2021/06/22 09:08:17;;;;;;;7.00;5.55;;;;;;;;;;4998935;28;20068;-59
2021/06/22 09:10:42;;;;;;;5.88;5.10;;;;;;;;;;4997588;28;20277;-60
2021/06/22 09:13:18;;;;;;;6.95;5.40;;;;;;;;;;4998265;28;20029;-60
2021/06/22 09:15:46;;;;;;;5.72;5.13;;;;;;;;;;4999648;28;20523;-59
2021/06/22 09:18:44;;;;;;;5.43;5.03;;;;;;;;;;5002773;28;20576;-60
2021/06/22 09:21:22;;;;;;;7.47;5.32;;;;;;;;;;4994248;28;20124;-60
2021/06/22 09:23:50;;;;;;;6.47;5.47;;;;;;;;;;4995561;28;20132;-60
2021/06/22 09:26:21;;;;;;;11.10;5.07;;;;;;;;;;4996626;28;20057;-60
2021/06/22 09:28:48;;;;;;;5.28;4.45;;;;;;;;;;4998365;28;20440;-60
2021/06/22 09:31:15;;;;;;;6.82;4.80;;;;;;;;;;5017543;28;20030;-60
2021/06/22 09:33:43;;;;;;;5.07;4.53;;;;;;;;;;4999266;28;20065;-59
2021/06/22 09:36:26;;;;;;;4.78;4.10;;;;;;;;;;5003406;28;20100;-60
2021/06/22 09:39:05;;;;;;;4.95;3.33;;;;;;;;;;4997047;28;20044;-61
2021/06/22 09:41:33;;;;;;;4.65;3.70;;;;;;;;;;4994974;28;20029;-60
2021/06/22 09:44:08;;;;;;;4.40;3.45;;;;;;;;;;5002968;28;20030;-60
2021/06/22 09:46:41;;;;;;;4.82;3.15;;;;;;;;;;4997371;28;20049;-60
2021/06/22 09:49:17;;;;;;;4.43;3.30;;;;;;;;;;4994705;28;20040;-60
2021/06/22 09:51:53;;;;;;;5.75;3.20;;;;;;;;;;4998405;28;20586;-60
2021/06/22 09:54:21;;;;;;;5.65;3.08;;;;;;;;;;4996781;28;20033;-60
2021/06/22 09:56:57;;;;;;;3.67;2.80;;;;;;;;;;5000919;28;20122;-60
2021/06/22 09:59:24;;;;;;;2.83;2.30;;;;;;;;;;4995580;28;20408;-58
2021/06/22 10:01:52;;;;;;;4.28;2.90;;;;;;;;;;5002900;28;20030;-59
2021/06/22 10:04:17;;;;;;;3.63;2.40;;;;;;;;;;5000223;28;20038;-59
2021/06/22 10:06:49;;;;;;;3.45;2.25;;;;;;;;;;4999955;28;20403;-59
2021/06/22 10:09:30;;;;;;;3.63;2.42;;;;;;;;;;5000971;28;20056;-59
2021/06/22 10:11:57;;;;;;;3.38;2.00;;;;;;;;;;4998109;28;21338;-59
2021/06/22 10:14:40;;;;;;;4.93;2.35;;;;;;;;;;4993589;28;20034;-60
2021/06/22 10:17:10;;;;;;;2.50;2.30;;;;;;;;;;5002783;28;20041;-58
2021/06/22 10:19:37;;;;;;;2.80;2.42;;;;;;;;;;4997619;28;20037;-57
2021/06/22 10:22:05;;;;;;;2.85;2.53;;;;;;;;;;5000769;28;20033;-58
2021/06/22 10:24:32;;;;;;;2.97;2.33;;;;;;;;;;5007978;28;20041;-60
2021/06/22 10:26:59;;;;;;;13.93;6.25;;;;;;;;;;5008558;28;20026;-57
2021/06/22 10:29:26;;;;;;;3.97;2.90;;;;;;;;;;5000246;28;20022;-58
2021/06/22 10:31:53;;;;;;;6.28;2.97;;;;;;;;;;5004079;28;20554;-58
2021/06/22 10:34:19;;;;;;;5.03;3.05;;;;;;;;;;4999326;28;20038;-58
2021/06/22 10:36:55;;;;;;;4.53;2.90;;;;;;;;;;5005742;28;20108;-57
2021/06/22 10:39:50;;;;;;;4.03;2.83;;;;;;;;;;4997554;28;20121;-58
2021/06/22 10:42:16;;;;;;;3.70;2.42;;;;;;;;;;5003977;28;20052;-58
2021/06/22 10:44:50;;;;;;;3.75;2.22;;;;;;;;;;5004489;28;20416;-58
2021/06/22 10:47:21;;;;;;;4.55;2.30;;;;;;;;;;4997873;28;20026;-58
2021/06/22 10:50:17;;;;;;;4.60;2.30;;;;;;;;;;5003223;28;20029;-58
2021/06/22 10:55:22;;;;;;;4.18;2.53;;;;;;;;;;5003769;28;20094;-58
2021/06/22 10:57:56;;;;;;;4.28;2.30;;;;;;;;;;5001541;28;20034;-58
2021/06/22 11:00:25;;;;;;;4.28;2.30;;;;;;;;;;5002079;28;20076;-59
2021/06/22 11:03:21;;;;;;;3.20;1.98;;;;;;;;;;4999339;28;20034;-58
2021/06/22 11:05:49;;;;;;;2.40;2.20;;;;;;;;;;5004022;28;20042;-57
2021/06/22 11:08:15;;;;;;;3.95;3.20;;;;;;;;;;5000887;28;20026;-58
2021/06/22 11:10:55;;;;;;;6.30;4.35;;;;;;;;;;5000857;28;20025;-58
2021/06/22 11:13:35;;;;;;;5.75;4.90;;;;;;;;;;5003108;28;20034;-58
2021/06/22 11:16:08;;;;;;;6.75;4.22;;;;;;;;;;5001868;28;20091;-58
2021/06/22 11:18:54;;;;;;;5.03;4.05;;;;;;;;;;5001562;28;20088;-58
2021/06/22 11:21:37;;;;;;;5.50;3.92;;;;;;;;;;4999024;28;20044;-58
2021/06/22 11:24:04;;;;;;;5.45;4.72;;;;;;;;;;5004283;28;20092;-58
2021/06/22 11:26:39;;;;;;;8.38;4.38;;;;;;;;;;5002110;28;20021;-58
2021/06/22 11:29:04;;;;;;;5.22;4.35;;;;;;;;;;4999802;28;20460;-57
2021/06/22 11:31:34;;;;;;;6.82;3.95;;;;;;;;;;5003529;28;20029;-58
2021/06/22 11:34:09;;;;;;;6.93;6.18;;;;;;;;;;4995649;28;20077;-58
2021/06/22 11:36:37;;;;;;;7.80;4.57;;;;;;;;;;4999953;28;20038;-58
2021/06/22 11:39:14;;;;;;;8.27;4.60;;;;;;;;;;4999702;28;20100;-58
2021/06/22 11:41:41;;;;;;;5.65;4.10;;;;;;;;;;5004117;28;20125;-58
2021/06/22 11:44:06;;;;;;;4.28;3.80;;;;;;;;;;5019236;28;20411;-58
2021/06/22 11:46:33;;;;;;;7.95;6.20;;;;;;;;;;5000663;28;20026;-59
2021/06/22 11:49:00;;;;;;;6.97;4.57;;;;;;;;;;5000750;28;20315;-59
2021/06/22 11:51:47;;;;;;;10.05;6.03;;;;;;;;;;5001850;28;20105;-58
2021/06/22 11:54:18;;;;;;;5.07;4.57;;;;;;;;;;4999876;28;20025;-56
2021/06/22 11:56:44;;;;;;;5.63;4.65;;;;;;;;;;5001840;28;20069;-56
2021/06/22 11:59:10;;;;;;;7.88;5.60;;;;;;;;;;4999547;28;20038;-57
2021/06/22 12:01:42;;;;;;;5.80;4.70;;;;;;;;;;5007448;28;20480;-58
2021/06/22 12:04:07;;;;;;;5.75;5.13;;;;;;;;;;4999269;28;20113;-57
2021/06/22 12:06:33;;;;;;;9.23;4.38;;;;;;;;;;5000011;28;20117;-57
2021/06/22 12:08:58;;;;;;;5.70;4.40;;;;;;;;;;5004323;28;20305;-57
2021/06/22 12:11:33;;;;;;;4.70;4.25;;;;;;;;;;5000833;28;20499;-58
2021/06/22 12:13:58;;;;;;;5.40;4.68;;;;;;;;;;4999106;28;20113;-58
2021/06/22 12:16:33;;;;;;;5.82;4.18;;;;;;;;;;4999728;28;20465;-57
2021/06/22 12:19:01;;;;;;;5.60;4.22;;;;;;;;;;5000673;28;20497;-58
2021/06/22 12:21:27;;;;;;;4.88;4.03;;;;;;;;;;4993552;28;20034;-58
2021/06/22 12:24:01;;;;;;;5.07;4.05;;;;;;;;;;4998332;28;20026;-56
2021/06/22 12:26:27;;;;;;;4.47;4.07;;;;;;;;;;5005544;28;20034;-57
2021/06/22 12:28:52;;;;;;;6.35;4.63;;;;;;;;;;5002763;28;20591;-58
2021/06/22 12:31:18;;;;;;;4.50;3.80;;;;;;;;;;5000329;28;20072;-57
2021/06/22 12:33:47;;;;;;;5.35;4.70;;;;;;;;;;5002931;28;20038;-59
2021/06/22 12:36:18;;;;;;;6.07;5.45;;;;;;;;;;4998329;28;20069;-58
2021/06/22 12:38:45;;;;;;;5.53;5.03;;;;;;;;;;5002211;28;20280;-58
2021/06/22 12:41:11;;;;;;;6.40;4.65;;;;;;;;;;4997822;28;20057;-59
2021/06/22 12:43:46;;;;;;;4.70;4.35;;;;;;;;;;4995227;28;20034;-57
2021/06/22 12:46:20;;;;;;;6.50;5.30;;;;;;;;;;4999539;28;20302;-58
2021/06/22 12:48:47;;;;;;;7.28;5.60;;;;;;;;;;5001126;28;20443;-58
2021/06/22 12:51:14;;;;;;;5.75;4.95;;;;;;;;;;5002986;28;20512;-59
2021/06/22 12:53:43;;;;;;;6.43;5.38;;;;;;;;;;4995141;28;20029;-59
2021/06/22 12:56:09;;;;;;;7.63;6.10;;;;;;;;;;4999031;28;20252;-59
2021/06/22 12:59:08;;;;;;;6.68;5.95;;;;;;;;;;4996363;28;20507;-59
2021/06/22 13:01:37;;;;;;;5.25;4.63;;;;;;;;;;4992445;28;20125;-59
2021/06/22 13:04:11;;;;;;;6.90;5.88;;;;;;;;;;4995147;28;20042;-59
2021/06/22 13:06:42;;;;;;;6.55;4.50;;;;;;;;;;4998800;28;20121;-59
2021/06/22 13:09:18;;;;;;;7.18;5.13;;;;;;;;;;4996843;28;20021;-59
2021/06/22 13:11:53;;;;;;;8.55;4.40;;;;;;;;;;4997787;28;20027;-59
2021/06/22 13:14:42;;;;;;;7.95;5.20;;;;;;;;;;4999054;28;20064;-58
2021/06/22 13:17:09;;;;;;;5.68;5.07;;;;;;;;;;4996765;28;20034;-59
2021/06/22 13:19:46;;;;;;;5.05;4.47;;;;;;;;;;4995594;28;20084;-59
2021/06/22 13:22:14;;;;;;;7.78;5.32;;;;;;;;;;4995264;28;20060;-58
2021/06/22 13:24:45;;;;;;;5.65;4.85;;;;;;;;;;4993343;28;20096;-58
2021/06/22 13:27:17;;;;;;;7.00;5.00;;;;;;;;;;4998523;28;20033;-58
2021/06/22 13:30:05;;;;;;;7.22;4.43;;;;;;;;;;5001306;28;20022;-58
2021/06/22 13:32:41;;;;;;;6.78;5.00;;;;;;;;;;4992937;28;20030;-59
2021/06/22 13:35:22;;;;;;;5.50;4.53;;;;;;;;;;4999754;28;20034;-58
2021/06/22 13:37:53;;;;;;;4.75;4.10;;;;;;;;;;5000662;28;20555;-58
2021/06/22 13:40:19;;;;;;;5.43;4.20;;;;;;;;;;4999341;28;20452;-58
2021/06/22 13:43:12;;;;;;;4.75;4.15;;;;;;;;;;4999579;28;20032;-59
2021/06/22 13:45:42;;;;;;;4.57;4.18;;;;;;;;;;5000772;28;20061;-59
2021/06/22 13:48:24;;;;;;;5.82;4.35;;;;;;;;;;4997770;28;20022;-60
2021/06/22 13:50:52;;;;;;;4.97;4.22;;;;;;;;;;4998241;28;20558;-61
2021/06/22 13:53:23;;;;;;;5.95;4.93;;;;;;;;;;5004950;28;20185;-59
2021/06/22 13:55:49;;;;;;;4.47;3.45;;;;;;;;;;4997563;28;20120;-60
2021/06/22 13:58:19;;;;;;;5.20;3.55;;;;;;;;;;5004376;28;20041;-59
2021/06/22 14:00:47;;;;;;;5.35;3.85;;;;;;;;;;5003969;28;20045;-61
2021/06/22 14:03:13;;;;;;;6.95;4.85;;;;;;;;;;4998976;28;20116;-60
2021/06/22 14:05:40;;;;;;;5.10;4.15;;;;;;;;;;5019722;28;20041;-61
2021/06/22 14:08:07;;;;;;;6.85;4.85;;;;;;;;;;5003138;28;20133;-59
2021/06/22 14:10:35;;;;;;;6.97;4.60;;;;;;;;;;5003926;28;20296;-61
2021/06/22 14:13:03;;;;;;;5.05;4.20;;;;;;;;;;4999562;28;20042;-61
2021/06/22 14:15:29;;;;;;;5.03;3.50;;;;;;;;;;4999047;28;20137;-59
2021/06/22 14:17:55;;;;;;;3.72;3.33;;;;;;;;;;5001866;28;20130;-59
2021/06/22 14:20:24;;;;;;;3.92;3.50;;;;;;;;;;5000343;28;20026;-58
2021/06/22 14:22:50;;;;;;;5.60;3.40;;;;;;;;;;4999569;28;20034;-59
2021/06/22 14:25:16;;;;;;;8.05;3.67;;;;;;;;;;5003994;28;20038;-58
2021/06/22 14:27:42;;;;;;;8.57;5.63;;;;;;;;;;4999391;28;20057;-58
2021/06/22 14:30:10;;;;;;;4.93;3.55;;;;;;;;;;5007982;28;20292;-57
2021/06/22 14:32:36;;;;;;;4.60;3.83;;;;;;;;;;4999216;28;20840;-57
2021/06/22 14:35:01;;;;;;;5.47;3.50;;;;;;;;;;4998701;28;20076;-58
2021/06/22 14:37:29;;;;;;;3.78;3.47;;;;;;;;;;5005094;28;20048;-57
2021/06/22 14:39:54;;;;;;;3.90;3.53;;;;;;;;;;5001800;28;20033;-57
2021/06/22 14:42:20;;;;;;;7.63;3.70;;;;;;;;;;5006581;28;20075;-57
2021/06/22 14:44:46;;;;;;;4.25;3.45;;;;;;;;;;5007975;28;20115;-59
2021/06/22 14:47:11;;;;;;;5.28;3.42;;;;;;;;;;5000716;28;20547;-58
2021/06/22 14:49:36;;;;;;;4.20;3.00;;;;;;;;;;4998231;28;20115;-58